Buffalo, WY

12:08 AM MDT on July 25, 2016 (GMT -0600)
| | Change Station

Elev -9999 ft 0.00 °N, 0.00 °E | Updated

Clear
Clear
65 °F
Feels Like 65 °F
N
9
Wind Variable Wind from WSW
Gusts mph

Today
High -- | Low -- °F
--% Chance of Precip.
Yesterday
High -- | Low -- °F
Precip. -- in
Pressure 29.96 in
Visibility 10.0 miles
Clouds Clear
Dew Point 41 °F
Humidity 40%
Rainfall --
Snow Depth Not available.
5:47 AM 8:38 PM
Waning Gibbous, 69% visible
METAR KBYG 250553Z AUTO 19004KT 10SM CLR 20/05 A3015 RMK AO2 SLP146 T02000050 10311 20183 51004
Pressure 29.96 in
Visibility 10.0 miles
Clouds Clear
Dew Point 41 °F
Humidity 40%
Rainfall --
Snow Depth Not available.
5:47 AM 8:38 PM
Waning Gibbous, 69% visible
METAR KBYG 250553Z AUTO 19004KT 10SM CLR 20/05 A3015 RMK AO2 SLP146 T02000050 10311 20183 51004

10-Day Weather Forecast

Almanac

Astronomy

Jul. 25, 2016 Rise Set
Actual Time
Civil Twilight
Nautical Twilight
Astronomical Twilight
Moon
Length of Visible Light
Length of Day
Tomorrow will be .
, % of the Moon is Illuminated

Today's Extremes

State Highs State Lows

Community

WunderPhotos

Upload Photos

1,927,276 photos uploaded!

WunderBlog® & News

Nearby

Air Quality

  Air Quality AQ Index Pollutant
Not available.

Snow Depth

Station Depth Elevation

Earthquake Activity

City Distance Mag. Time & Date
Minimum magnitude displayed is 2.5.

Coastal Water Temperatures

Place Temperature

Stations

Nearby Weather Stations

Station Location Temp. Windchill Dew Point Humidity Wind Precip. Elev Updated Type
                   

Watches & Warnings

There are currently no watches in effect.